Time;durP1;ratioP1;P1;durP2;ratioP2;P2;SDS_P1;SDS_P2;PMS_P1;PMS_P2;Temp;Humidity;BMP_temperature;BMP_pressure;BME280_temperature;BME280_humidity;BME280_pressure;Samples;Min_cycle;Max_cycle;Signal;HPM_P1;HPM_P2
2023/01/24 00:01:11;;;;;;;;;43.40;35.00;;;;;7.74;67.01;100551.06;6220163;28;96148;-64
2023/01/24 00:04:14;;;;;;;;;42.20;35.60;;;;;7.77;66.82;100555.28;6239231;27;97497;-63
2023/01/24 00:07:17;;;;;;;;;42.40;34.40;;;;;7.69;67.23;100545.34;6239822;28;96215;-63
2023/01/24 00:10:25;;;;;;;;;43.50;35.00;;;;;7.81;66.80;100543.22;6223759;28;96264;-63
2023/01/24 00:13:28;;;;;;;;;36.50;31.50;;;;;7.84;66.50;100546.41;6244969;27;97706;-63
2023/01/24 00:16:31;;;;;;;;;39.50;31.50;;;;;7.79;66.40;100551.41;6221631;28;96627;-63
2023/01/24 00:19:35;;;;;;;;;38.00;32.00;;;;;7.80;66.57;100542.38;6226377;28;96401;-63
2023/01/24 00:22:38;;;;;;;;;32.20;29.00;;;;;7.76;66.72;100540.19;6230257;28;96792;-63
2023/01/24 00:25:43;;;;;;;;;43.25;33.00;;;;;7.84;66.59;100535.66;6239901;27;96492;-63
2023/01/24 00:28:47;;;;;;;;;35.40;30.40;;;;;7.90;66.43;100544.91;6234051;27;96558;-63
2023/01/24 00:31:50;;;;;;;;;43.20;32.40;;;;;7.92;66.40;100552.78;6241279;27;96632;-63
2023/01/24 00:34:54;;;;;;;;;39.20;32.60;;;;;7.84;66.50;100548.25;6217907;28;96862;-63
2023/01/24 00:37:59;;;;;;;;;37.75;31.75;;;;;7.87;66.47;100560.50;6231850;27;97620;-63
2023/01/24 00:41:04;;;;;;;;;33.00;28.00;;;;;7.87;66.66;100560.50;6221060;28;96452;-63
2023/01/24 00:44:08;;;;;;;;;37.60;32.00;;;;;7.82;66.88;100563.66;6238936;28;96213;-63
2023/01/24 00:47:11;;;;;;;;;38.50;33.25;;;;;7.87;66.76;100563.22;6221387;28;96572;-63
2023/01/24 00:50:14;;;;;;;;;39.75;31.50;;;;;7.79;67.05;100567.53;6247190;27;96322;-63
2023/01/24 00:53:19;;;;;;;;;40.60;34.60;;;;;7.87;66.74;100558.66;6239245;28;96211;-63
2023/01/24 00:56:24;;;;;;;;;37.20;31.00;;;;;7.86;67.00;100558.84;6253089;27;96520;-63
2023/01/24 00:59:27;;;;;;;;;37.60;31.40;;;;;7.84;66.94;100558.97;6238612;28;96216;-63
2023/01/24 01:02:30;;;;;;;;;35.60;30.40;;;;;7.70;67.04;100555.09;6243384;27;96712;-63
2023/01/24 01:05:34;;;;;;;;;38.60;32.20;;;;;7.80;67.26;100555.78;6241920;27;96353;-63
2023/01/24 01:08:38;;;;;;;;;41.00;33.00;;;;;7.91;66.80;100559.19;6203096;28;96665;-63
2023/01/24 01:11:43;;;;;;;;;36.00;32.00;;;;;7.94;66.62;100562.38;6237531;28;96491;-63
2023/01/24 01:14:47;;;;;;;;;39.60;32.60;;;;;7.86;66.86;100559.69;6220381;28;96368;-63
2023/01/24 01:17:50;;;;;;;;;38.60;30.00;;;;;7.85;66.70;100563.34;6243477;27;96454;-64
2023/01/24 01:20:54;;;;;;;;;39.00;32.00;;;;;7.93;66.55;100560.69;6230737;27;96385;-63
2023/01/24 01:23:57;;;;;;;;;37.40;32.60;;;;;7.87;66.93;100568.56;6255164;27;97021;-63
2023/01/24 01:27:02;;;;;;;;;39.00;32.20;;;;;7.93;66.79;100567.91;6238452;28;96395;-63
2023/01/24 01:30:06;;;;;;;;;42.40;34.00;;;;;7.90;66.68;100563.72;6236915;28;96388;-63
2023/01/24 01:33:10;;;;;;;;;37.60;32.00;;;;;7.80;66.94;100569.22;6237940;27;96266;-65
2023/01/24 01:36:13;;;;;;;;;36.40;32.40;;;;;7.71;67.37;100572.03;6238145;28;96407;-63
2023/01/24 01:39:16;;;;;;;;;40.50;31.75;;;;;7.74;67.62;100571.69;6214938;28;96332;-63
2023/01/24 01:42:21;;;;;;;;;40.40;33.00;;;;;7.69;67.44;100568.66;6251404;27;96925;-63
2023/01/24 01:45:35;;;;;;;;;39.00;32.50;;;;;7.80;67.22;100574.59;6237961;28;96560;-64
2023/01/24 01:48:43;;;;;;;;;36.20;31.20;;;;;7.83;67.00;100581.47;6216051;28;96731;-63
2023/01/24 01:51:49;;;;;;;;;36.25;32.00;;;;;7.84;66.88;100575.94;6240145;27;97642;-63
2023/01/24 01:54:57;;;;;;;;;31.60;30.00;;;;;7.76;67.04;100577.75;6219697;28;96352;-62
2023/01/24 01:58:04;;;;;;;;;33.40;30.00;;;;;7.76;67.28;100581.28;6218764;28;96185;-62
2023/01/24 02:01:07;;;;;;;;;32.00;28.00;;;;;7.71;67.45;100577.41;6221091;27;97258;-62
2023/01/24 02:04:16;;;;;;;;;32.75;28.25;;;;;7.68;67.48;100577.72;6237920;27;96684;-62
2023/01/24 02:07:22;;;;;;;;;33.00;31.00;;;;;7.78;67.11;100584.63;6219846;28;96617;-64
2023/01/24 02:11:37;;;;;;;;;30.40;26.00;;;;;7.84;66.80;100570.56;6222287;28;96339;-63
2023/01/24 02:16:02;;;;;;;;;28.00;26.00;;;;;7.77;66.54;100574.09;6230184;27;96521;-63
2023/01/24 02:17:17;;;;;;;;;29.00;23.00;;;;;7.83;66.60;100573.41;6236588;27;96337;-65
2023/01/24 02:20:29;;;;;;;;;29.40;27.00;;;;;7.88;66.26;100571.06;6252032;27;96230;-63
2023/01/24 02:23:42;;;;;;;;;26.50;23.00;;;;;7.88;66.27;100565.72;6237578;28;96409;-62
2023/01/24 02:26:47;;;;;;;;;30.00;25.00;;;;;7.87;66.30;100569.38;6209182;28;96334;-62
2023/01/24 02:29:51;;;;;;;;;27.00;25.00;;;;;7.94;65.75;100564.22;6212912;28;98482;-62
2023/01/24 02:32:54;;;;;;;;;20.60;18.60;;;;;7.90;65.61;100552.13;6218991;28;96293;-62
2023/01/24 02:36:15;;;;;;;;;25.00;23.00;;;;;7.95;65.49;100557.84;6215479;28;97140;-63
2023/01/24 02:39:24;;;;;;;;;26.40;23.40;;;;;7.87;65.46;100565.88;6231346;27;96843;-63
2023/01/24 02:42:34;;;;;;;;;23.00;21.00;;;;;7.88;65.44;100560.34;6219003;28;96916;-62
2023/01/24 02:45:38;;;;;;;;;22.60;20.00;;;;;7.86;65.65;100564.19;6218707;28;96400;-62
2023/01/24 02:48:42;;;;;;;;;28.00;22.80;;;;;7.83;65.86;100558.13;6242771;27;96470;-62
2023/01/24 02:55:07;;;;;;;;;22.40;20.00;;;;;7.75;66.06;100555.44;6218766;28;96425;-62
2023/01/24 02:58:10;;;;;;;;;24.00;20.60;;;;;7.75;66.20;100571.56;6233993;28;96457;-62
2023/01/24 03:01:15;;;;;;;;;21.00;19.00;;;;;7.75;66.09;100568.88;6249077;27;96549;-62
2023/01/24 03:04:23;;;;;;;;;25.00;21.50;;;;;7.86;65.95;100575.78;6215429;28;96823;-63
2023/01/24 03:07:26;;;;;;;;;24.80;20.60;;;;;7.76;66.27;100577.75;6208913;28;96979;-62
2023/01/24 03:10:35;;;;;;;;;25.60;21.80;;;;;7.77;66.30;100577.56;6218505;28;97022;-63
2023/01/24 03:37:09;;;;;;;;;23.75;21.75;;;;;7.94;66.71;100583.84;6227924;27;96451;-62
2023/01/24 03:40:14;;;;;;;;;30.80;27.40;;;;;8.01;66.53;100589.44;6239300;28;97123;-63
2023/01/24 03:43:19;;;;;;;;;31.25;27.00;;;;;8.01;66.46;100589.44;6221700;28;96475;-63
2023/01/24 03:46:24;;;;;;;;;28.80;23.20;;;;;7.94;66.51;100585.69;6221576;28;96553;-63
2023/01/24 03:52:49;;;;;;;;;30.00;27.40;;;;;7.97;66.58;100578.16;6234971;27;96664;-62
2023/01/24 03:55:53;;;;;;;;;26.00;24.00;;;;;7.83;66.99;100578.78;6235925;27;96364;-65
2023/01/24 03:58:57;;;;;;;;;27.00;25.00;;;;;7.79;66.88;100578.28;6254982;27;96190;-65
2023/01/24 04:02:05;;;;;;;;;29.00;25.00;;;;;7.82;67.00;100579.78;6217202;28;97670;-64
2023/01/24 04:05:13;;;;;;;;;28.20;25.20;;;;;7.80;66.81;100579.97;6246674;27;96352;-61
2023/01/24 04:08:19;;;;;;;;;27.40;23.00;;;;;7.72;67.15;100576.41;6204857;28;97080;-62
2023/01/24 04:11:24;;;;;;;;;26.60;23.00;;;;;7.72;67.36;100579.09;6251039;27;97512;-62
2023/01/24 04:14:36;;;;;;;;;19.20;16.00;;;;;7.65;67.68;100578.88;6204107;28;96657;-63
2023/01/24 04:17:46;;;;;;;;;26.40;22.00;;;;;7.65;67.43;100583.41;6234866;27;96776;-63
2023/01/24 04:20:51;;;;;;;;;23.00;20.75;;;;;7.37;68.20;100572.91;6237829;28;96261;-62
2023/01/24 04:23:55;;;;;;;;;25.80;21.00;;;;;7.38;68.68;100576.41;6220008;28;96486;-63
2023/01/24 04:26:58;;;;;;;;;22.50;20.25;;;;;7.38;68.76;100579.94;6218479;28;97104;-62
2023/01/24 04:30:11;;;;;;;;;18.00;17.00;;;;;7.36;69.03;100576.59;6219961;28;96834;-63
2023/01/24 04:33:17;;;;;;;;;16.33;15.00;;;;;7.37;69.17;100575.59;6234080;27;96360;-63
2023/01/24 04:36:20;;;;;;;;;17.75;16.75;;;;;7.37;69.12;100572.91;6203004;28;96449;-63
2023/01/24 04:39:24;;;;;;;;;17.80;15.80;;;;;7.39;68.98;100581.63;6229707;27;98074;-62
2023/01/24 04:42:42;;;;;;;;;18.00;16.00;;;;;7.35;69.11;100584.78;6223658;28;96249;-62
2023/01/24 04:45:46;;;;;;;;;18.75;16.00;;;;;7.35;68.96;100577.56;6250984;27;96483;-63
2023/01/24 04:48:54;;;;;;;;;21.00;18.40;;;;;7.33;69.08;100586.81;6227728;28;96776;-63
2023/01/24 04:52:06;;;;;;;;;21.40;19.00;;;;;7.39;68.99;100584.31;6222196;27;96331;-63
2023/01/24 04:55:32;;;;;;;;;18.50;16.50;;;;;7.31;68.75;100557.44;6213145;28;98597;-62
2023/01/24 04:58:36;;;;;;;;;21.00;19.00;;;;;7.56;68.25;100579.88;6231671;28;96211;-63
2023/01/24 05:01:40;;;;;;;;;16.60;15.00;;;;;7.45;68.43;100593.56;6196023;28;97531;-62
2023/01/24 05:04:55;;;;;;;;;18.00;16.00;;;;;7.38;68.66;100587.97;6222587;28;96277;-61
2023/01/24 05:07:59;;;;;;;;;17.60;14.00;;;;;7.19;69.01;100561.38;6222380;27;96381;-63
2023/01/24 05:11:03;;;;;;;;;12.20;11.80;;;;;7.07;69.25;100594.84;6229532;28;96865;-62
2023/01/24 05:14:11;;;;;;;;;16.40;15.00;;;;;7.14;69.35;100595.03;6218945;27;96293;-62
2023/01/24 05:17:14;;;;;;;;;17.40;15.80;;;;;7.08;69.41;100596.53;6222306;28;96518;-62
2023/01/24 05:20:20;;;;;;;;;18.00;15.00;;;;;7.12;69.10;100594.38;6217046;28;96124;-64
2023/01/24 05:23:23;;;;;;;;;16.00;14.00;;;;;7.16;69.21;100601.09;6218737;28;96638;-62
2023/01/24 05:26:27;;;;;;;;;16.00;15.00;;;;;7.20;68.74;100603.31;6237809;27;96955;-62
2023/01/24 05:29:32;;;;;;;;;13.00;12.33;;;;;7.16;68.28;100596.59;6216877;27;96467;-63
2023/01/24 05:32:38;;;;;;;;;12.00;10.75;;;;;7.09;68.24;100600.88;6236877;27;96745;-64
2023/01/24 05:35:44;;;;;;;;;11.00;10.00;;;;;7.27;68.08;100599.00;6207023;28;98510;-62
2023/01/24 05:38:48;;;;;;;;;17.80;15.80;;;;;7.39;67.40;100596.88;6224986;27;97540;-63
2023/01/24 05:41:52;;;;;;;;;15.75;14.75;;;;;7.60;67.09;100602.69;6201882;28;96613;-64
2023/01/24 05:44:57;;;;;;;;;18.20;16.80;;;;;7.70;66.72;100607.94;6224349;27;96675;-65
2023/01/24 05:48:01;;;;;;;;;17.80;15.00;;;;;7.77;66.03;100607.13;6211444;28;96564;-63
2023/01/24 05:51:08;;;;;;;;;16.00;14.40;;;;;7.86;65.85;100617.91;6225344;27;96892;-62
2023/01/24 05:54:11;;;;;;;;;15.00;13.75;;;;;7.93;65.36;100606.34;6218667;28;96709;-63
2023/01/24 05:57:31;;;;;;;;;20.40;15.00;;;;;8.00;64.99;100618.13;6227328;28;96925;-62
2023/01/24 06:00:54;;;;;;;;;19.00;17.20;;;;;7.90;64.77;100608.53;6234648;27;97028;-63
2023/01/24 06:04:14;;;;;;;;;19.75;17.00;;;;;8.04;64.70;100621.31;6235093;27;96609;-62
2023/01/24 06:07:20;;;;;;;;;18.00;16.00;;;;;8.11;64.28;100627.75;6213233;28;97554;-66
2023/01/24 06:10:23;;;;;;;;;21.00;19.00;;;;;8.14;64.16;100630.94;6222487;28;96316;-64
2023/01/24 06:13:37;;;;;;;;;22.25;20.50;;;;;8.14;64.08;100635.47;6217165;28;96418;-63
2023/01/24 06:16:41;;;;;;;;;18.25;17.25;;;;;8.03;64.04;100616.94;6232369;28;96709;-65
2023/01/24 06:19:45;;;;;;;;;20.60;18.60;;;;;8.03;64.48;100631.22;6244613;27;96310;-65
2023/01/24 06:22:53;;;;;;;;;22.50;19.50;;;;;8.08;64.19;100630.72;6233442;28;96701;-63
2023/01/24 06:25:59;;;;;;;;;21.00;19.00;;;;;8.17;64.15;100646.72;6215305;28;96457;-64
2023/01/24 06:29:03;;;;;;;;;20.20;18.20;;;;;8.13;64.15;100641.81;6234855;28;96850;-62
2023/01/24 06:32:20;;;;;;;;;22.60;20.00;;;;;8.15;64.16;100651.41;6235149;27;96960;-63
2023/01/24 06:35:35;;;;;;;;;19.00;18.00;;;;;8.15;64.08;100639.84;6232204;27;96459;-64
2023/01/24 06:38:41;;;;;;;;;22.80;19.80;;;;;8.25;63.88;100643.22;6233240;27;96640;-64
2023/01/24 06:41:45;;;;;;;;;21.40;18.80;;;;;8.28;63.90;100653.63;6205212;28;98617;-63
2023/01/24 06:44:48;;;;;;;;;22.60;20.00;;;;;8.28;63.72;100650.94;6242444;27;96492;-65
2023/01/24 06:47:51;;;;;;;;;22.00;19.00;;;;;8.21;64.08;100652.59;6236962;27;96237;-64
2023/01/24 06:50:55;;;;;;;;;26.50;20.00;;;;;8.27;63.86;100651.94;6247857;27;96559;-64
2023/01/24 06:54:00;;;;;;;;;20.50;19.00;;;;;8.25;63.75;100653.97;6247333;27;96407;-64
2023/01/24 06:57:06;;;;;;;;;19.60;16.60;;;;;8.24;63.92;100663.88;6236447;28;96167;-63
2023/01/24 07:00:10;;;;;;;;;17.00;15.00;;;;;8.16;64.23;100661.13;6236530;28;96525;-63
2023/01/24 07:03:14;;;;;;;;;19.60;16.00;;;;;8.13;64.50;100656.09;6230299;27;96265;-63
2023/01/24 07:06:17;;;;;;;;;18.80;17.40;;;;;8.16;64.68;100665.69;6224339;28;96441;-63
2023/01/24 07:09:22;;;;;;;;;18.00;17.00;;;;;8.21;64.72;100668.72;6239668;28;96106;-65
2023/01/24 07:12:25;;;;;;;;;20.00;17.50;;;;;8.21;64.40;100666.03;6222888;28;96334;-63
2023/01/24 07:15:29;;;;;;;;;22.00;18.60;;;;;8.24;64.51;100668.41;6240730;28;96730;-63
2023/01/24 07:18:33;;;;;;;;;16.00;14.20;;;;;8.27;64.53;100678.81;6240356;28;96272;-63
2023/01/24 07:21:40;;;;;;;;;23.00;20.50;;;;;8.32;64.41;100676.50;6240379;28;96709;-63
2023/01/24 07:24:45;;;;;;;;;17.60;15.00;;;;;8.45;64.44;100686.81;6240605;28;96400;-63
2023/01/24 07:27:50;;;;;;;;;21.00;18.00;;;;;8.37;63.82;100682.25;6243209;27;96890;-63
2023/01/24 07:30:54;;;;;;;;;18.80;16.00;;;;;8.41;64.08;100680.06;6240211;28;96266;-63
2023/01/24 07:33:57;;;;;;;;;17.60;16.60;;;;;8.45;64.35;100690.34;6240213;28;96920;-63
2023/01/24 07:37:00;;;;;;;;;21.50;19.50;;;;;8.52;64.04;100693.19;6239747;28;96605;-63
2023/01/24 07:40:06;;;;;;;;;24.00;19.00;;;;;8.58;63.70;100693.38;6253130;27;96285;-63
2023/01/24 07:43:10;;;;;;;;;19.00;16.00;;;;;8.57;63.49;100691.69;6240791;28;96351;-63
2023/01/24 07:46:14;;;;;;;;;21.40;18.00;;;;;8.60;63.49;100679.78;6222293;28;96337;-63
2023/01/24 07:49:17;;;;;;;;;16.75;15.00;;;;;8.68;63.19;100698.63;6240436;28;96347;-64
2023/01/24 07:52:21;;;;;;;;;13.20;12.20;;;;;8.65;63.04;100699.78;6223083;28;96829;-63
2023/01/24 07:55:25;;;;;;;;;15.25;14.50;;;;;8.65;63.08;100707.84;6237246;27;96478;-65
2023/01/24 07:58:29;;;;;;;;;17.50;16.00;;;;;8.56;63.04;100706.13;6214081;28;96294;-64
2023/01/24 08:01:33;;;;;;;;;16.00;14.40;;;;;8.60;63.36;100714.75;6230918;27;96100;-64
2023/01/24 08:04:36;;;;;;;;;16.75;15.00;;;;;8.61;63.30;100714.56;6239658;27;96201;-64
2023/01/24 08:07:39;;;;;;;;;14.80;13.80;;;;;8.69;63.30;100719.13;6248464;27;97296;-63
2023/01/24 08:10:44;;;;;;;;;20.00;17.00;;;;;8.67;63.40;100718.44;6227652;27;96303;-65
2023/01/24 08:13:49;;;;;;;;;16.00;14.80;;;;;8.65;63.37;100725.81;6237537;27;97485;-63
2023/01/24 08:16:53;;;;;;;;;17.75;14.00;;;;;8.68;63.34;100720.13;6237472;27;96318;-63
2023/01/24 08:19:56;;;;;;;;;14.00;13.00;;;;;8.69;63.03;100717.28;6213853;28;96627;-63
2023/01/24 08:23:00;;;;;;;;;16.75;15.75;;;;;8.80;63.30;100728.69;6237195;27;96372;-63
2023/01/24 08:26:06;;;;;;;;;10.20;10.20;;;;;8.74;62.63;100727.53;6246029;27;96444;-64
2023/01/24 08:29:10;;;;;;;;;16.00;15.40;;;;;8.69;63.00;100722.66;6257151;27;96905;-63
2023/01/24 08:32:13;;;;;;;;;15.60;13.60;;;;;8.69;62.96;100722.66;6232378;27;96808;-63
2023/01/24 08:35:17;;;;;;;;;14.25;14.00;;;;;8.64;63.14;100733.06;6244663;27;97252;-63
2023/01/24 08:38:20;;;;;;;;;17.80;15.00;;;;;8.61;63.26;100735.22;6245401;27;96618;-63
2023/01/24 08:41:25;;;;;;;;;19.60;17.00;;;;;8.68;63.14;100737.09;6213199;28;96772;-62
2023/01/24 08:44:28;;;;;;;;;14.00;13.00;;;;;8.79;62.98;100735.97;6231633;27;96391;-63
2023/01/24 08:47:32;;;;;;;;;20.60;18.60;;;;;8.75;62.93;100745.34;6231328;28;96311;-63
2023/01/24 08:50:35;;;;;;;;;17.50;15.50;;;;;8.79;63.10;100740.50;6237045;27;96473;-64
2023/01/24 08:53:38;;;;;;;;;15.00;13.80;;;;;8.79;62.91;100743.19;6220728;27;96691;-63
2023/01/24 08:56:43;;;;;;;;;16.75;15.25;;;;;8.87;62.73;100735.13;6185444;27;1455111;-63
2023/01/24 08:59:46;;;;;;;;;16.50;15.75;;;;;8.88;62.34;100744.88;6238866;27;96634;-62
2023/01/24 09:02:51;;;;;;;;;17.00;15.20;;;;;8.79;62.44;100738.66;6235936;28;96498;-68
2023/01/24 09:05:56;;;;;;;;;15.25;14.25;;;;;8.83;62.54;100741.84;6249392;27;97691;-65
2023/01/24 09:09:00;;;;;;;;;18.00;15.00;;;;;8.86;62.29;100741.50;6245883;27;96385;-66
2023/01/24 09:12:05;;;;;;;;;16.80;15.80;;;;;8.89;62.25;100743.88;6238280;28;96323;-67
2023/01/24 09:15:09;;;;;;;;;16.00;15.20;;;;;8.90;62.80;100751.75;6218142;28;96601;-67
2023/01/24 09:18:12;;;;;;;;;19.20;16.60;;;;;8.92;62.41;100747.06;6237457;27;96836;-62
2023/01/24 09:21:16;;;;;;;;;16.00;14.40;;;;;8.95;62.22;100753.94;6238285;27;96357;-62
2023/01/24 09:24:19;;;;;;;;;17.80;16.80;;;;;9.01;62.13;100754.13;6237370;28;96632;-63
2023/01/24 09:27:24;;;;;;;;;24.50;21.50;;;;;8.99;62.07;100750.75;6233705;27;96263;-63
2023/01/24 09:30:27;;;;;;;;;20.20;17.40;;;;;8.98;62.04;100742.88;6237227;28;97023;-64
2023/01/24 09:33:31;;;;;;;;;21.00;18.00;;;;;8.94;61.92;100749.59;6237221;28;96451;-64
2023/01/24 09:36:35;;;;;;;;;19.80;16.00;;;;;8.86;62.18;100749.56;6235091;28;96535;-63
2023/01/24 09:39:38;;;;;;;;;21.80;18.00;;;;;8.80;62.47;100744.84;6235884;28;96620;-64
2023/01/24 09:42:48;;;;;;;;;21.60;19.40;;;;;8.77;62.75;100742.50;6252475;27;96692;-63
2023/01/24 09:46:04;;;;;;;;;19.20;16.60;;;;;8.62;62.99;100743.13;6237752;28;96708;-62
2023/01/24 09:49:16;;;;;;;;;19.50;17.50;;;;;8.64;63.05;100727.69;6235891;28;96526;-63
2023/01/24 09:52:28;;;;;;;;;16.80;15.20;;;;;8.62;63.17;100734.22;6237759;27;96260;-63
2023/01/24 09:55:35;;;;;;;;;20.50;17.00;;;;;8.64;63.24;100740.28;6236925;28;96427;-63
2023/01/24 09:58:43;;;;;;;;;21.50;19.50;;;;;8.54;63.33;100735.06;6235292;28;96550;-63
2023/01/24 10:01:48;;;;;;;;;20.60;19.00;;;;;8.55;63.20;100728.66;6216478;28;96729;-63
2023/01/24 10:04:51;;;;;;;;;25.00;23.00;;;;;8.62;63.43;100737.75;6233249;28;96299;-63
2023/01/24 10:08:06;;;;;;;;;26.00;23.40;;;;;8.51;63.52;100738.06;6236571;28;96518;-63
2023/01/24 10:11:22;;;;;;;;;27.00;24.40;;;;;8.58;63.88;100733.72;6237718;28;96852;-63
2023/01/24 10:14:42;;;;;;;;;28.00;25.00;;;;;8.58;63.36;100728.34;6215257;28;98599;-63
2023/01/24 10:18:02;;;;;;;;;25.33;23.00;;;;;8.58;63.50;100735.56;6236707;28;96675;-63
2023/01/24 10:21:21;;;;;;;;;24.50;22.00;;;;;8.65;63.63;100734.72;6229090;27;96368;-64
2023/01/24 10:24:31;;;;;;;;;21.00;18.60;;;;;8.56;63.60;100735.72;6232505;27;97091;-63
2023/01/24 10:27:39;;;;;;;;;27.50;24.00;;;;;8.56;63.64;100724.97;6236052;28;96466;-63
2023/01/24 10:30:51;;;;;;;;;19.00;16.00;;;;;8.65;63.83;100720.44;6237455;28;96768;-63
2023/01/24 10:34:01;;;;;;;;;19.00;17.00;;;;;8.63;63.97;100722.47;6238469;28;96147;-62
2023/01/24 10:37:14;;;;;;;;;19.50;16.25;;;;;8.65;64.14;100729.34;6236202;28;96316;-62
2023/01/24 10:40:18;;;;;;;;;21.60;17.00;;;;;8.69;64.07;100719.97;6235523;27;97187;-64
2023/01/24 10:43:25;;;;;;;;;21.40;19.00;;;;;8.70;63.94;100727.00;6235206;28;96987;-63
2023/01/24 10:46:54;;;;;;;;;18.60;17.60;;;;;8.67;64.20;100724.66;6237639;28;96178;-63
2023/01/24 10:49:59;;;;;;;;;18.20;15.00;;;;;8.67;64.29;100716.59;6237341;28;96372;-64
2023/01/24 10:53:14;;;;;;;;;20.00;17.00;;;;;8.69;64.15;100719.13;6240066;27;96499;-63
2023/01/24 10:56:31;;;;;;;;;22.00;18.00;;;;;8.66;64.12;100714.91;6235684;27;96292;-62
2023/01/24 10:59:35;;;;;;;;;16.00;14.75;;;;;8.62;64.20;100710.88;6236729;28;96974;-63
2023/01/24 11:02:40;;;;;;;;;18.60;16.60;;;;;8.61;63.98;100714.56;6235547;27;96303;-63
2023/01/24 11:05:48;;;;;;;;;19.60;15.00;;;;;8.63;64.06;100701.81;6233037;28;96435;-63
2023/01/24 11:08:59;;;;;;;;;14.60;13.60;;;;;8.70;63.75;100700.13;6236714;28;96353;-63
2023/01/24 11:12:04;;;;;;;;;17.80;15.00;;;;;8.66;63.53;100697.94;6237283;28;96481;-64
2023/01/24 11:15:18;;;;;;;;;17.60;15.00;;;;;8.72;63.42;100696.44;6236934;27;96530;-64
2023/01/24 11:18:27;;;;;;;;;16.00;14.00;;;;;8.66;63.49;100696.09;6234345;28;96353;-62
2023/01/24 11:21:32;;;;;;;;;18.60;15.60;;;;;8.70;63.47;100692.06;6230630;28;96315;-63
2023/01/24 11:24:44;;;;;;;;;18.50;15.75;;;;;8.81;63.58;100688.19;6237226;28;96522;-63
2023/01/24 11:27:48;;;;;;;;;22.20;18.00;;;;;8.87;62.94;100686.69;6237080;28;96730;-63
2023/01/24 11:30:52;;;;;;;;;20.80;18.40;;;;;8.86;63.20;100685.00;6234643;28;96721;-64
2023/01/24 11:34:30;;;;;;;;;20.50;17.00;;;;;8.89;63.18;100682.00;6233437;28;97479;-65
2023/01/24 11:37:57;;;;;;;;;21.60;17.60;;;;;8.74;63.12;100684.50;6233044;28;96253;-63
2023/01/24 11:41:10;;;;;;;;;18.20;15.00;;;;;8.75;63.35;100683.47;6233021;27;96316;-63
2023/01/24 11:44:45;;;;;;;;;16.20;14.80;;;;;8.60;63.66;100685.16;6235008;28;96765;-64
2023/01/24 11:48:01;;;;;;;;;17.60;14.20;;;;;8.70;63.85;100677.75;6215617;28;96534;-64
2023/01/24 11:51:12;;;;;;;;;19.75;15.75;;;;;8.73;63.53;100677.44;6240051;28;96452;-63
2023/01/24 11:54:31;;;;;;;;;20.00;17.00;;;;;8.69;63.66;100676.94;6239875;28;96888;-63
2023/01/24 11:57:44;;;;;;;;;15.00;12.00;;;;;8.69;63.72;100673.41;6234632;28;96449;-62
2023/01/24 12:00:57;;;;;;;;;17.20;14.00;;;;;8.74;63.49;100671.06;6236913;28;96232;-63
2023/01/24 12:04:40;;;;;;;;;14.40;12.40;;;;;8.65;63.60;100669.34;6219746;28;97213;-64
2023/01/24 12:07:57;;;;;;;;;16.20;14.20;;;;;8.62;63.61;100670.53;6236998;27;96226;-62
2023/01/24 12:11:05;;;;;;;;;19.20;16.80;;;;;8.62;63.89;100667.00;6236262;28;96835;-64
2023/01/24 12:15:04;;;;;;;;;17.00;13.40;;;;;8.47;63.88;100661.44;6235519;27;96256;-63
2023/01/24 12:18:33;;;;;;;;;15.60;13.40;;;;;8.36;64.50;100660.88;6238077;28;96209;-65
2023/01/24 12:21:36;;;;;;;;;18.00;15.00;;;;;8.44;64.51;100659.09;6199607;28;97836;-64
2023/01/24 12:24:45;;;;;;;;;15.20;14.20;;;;;8.39;64.44;100656.06;6227829;28;96722;-65
2023/01/24 12:27:51;;;;;;;;;16.00;12.00;;;;;8.08;64.95;100652.22;6251033;27;98810;-64
2023/01/24 12:31:01;;;;;;;;;19.00;16.00;;;;;8.17;65.17;100646.72;6219711;28;96715;-64
2023/01/24 12:34:14;;;;;;;;;17.40;14.80;;;;;8.09;65.52;100654.75;6237226;28;96490;-66
2023/01/24 12:37:27;;;;;;;;;15.00;14.00;;;;;7.94;65.81;100652.84;6238893;27;97308;-67
2023/01/24 12:40:41;;;;;;;;;17.00;16.50;;;;;7.78;66.34;100641.03;6235462;28;96350;-67
2023/01/24 12:43:55;;;;;;;;;17.00;14.80;;;;;7.82;66.47;100658.50;6236531;27;96303;-65
2023/01/24 12:47:12;;;;;;;;;15.00;14.00;;;;;7.82;66.50;100663.00;6237835;28;96263;-65
2023/01/24 12:50:25;;;;;;;;;15.60;13.00;;;;;7.90;66.63;100671.13;6237726;28;96518;-64
2023/01/24 12:53:35;;;;;;;;;16.25;15.00;;;;;7.71;66.49;100672.22;6213377;28;96231;-64
2023/01/24 12:56:50;;;;;;;;;14.00;13.00;;;;;7.79;66.85;100674.09;6240500;28;96437;-64
2023/01/24 12:59:53;;;;;;;;;14.00;14.00;;;;;7.77;66.65;100666.19;6240421;27;96359;-66
2023/01/24 13:03:25;;;;;;;;;14.20;13.20;;;;;7.79;66.94;100680.31;6241564;28;97173;-65
2023/01/24 13:06:43;;;;;;;;;16.60;13.40;;;;;7.86;66.64;100679.69;6229254;28;96954;-64
2023/01/24 13:09:55;;;;;;;;;11.60;10.60;;;;;7.81;66.34;100685.53;6219711;28;97010;-64
2023/01/24 13:13:03;;;;;;;;;13.00;11.60;;;;;7.82;66.30;100682.66;6231705;28;97088;-67
2023/01/24 13:16:28;;;;;;;;;16.00;14.00;;;;;7.83;65.83;100681.66;6241767;28;96297;-65
2023/01/24 13:19:45;;;;;;;;;17.00;14.00;;;;;7.95;65.82;100690.28;6234591;28;96588;-66
2023/01/24 13:23:05;;;;;;;;;15.80;12.80;;;;;7.84;65.21;100686.03;6230719;28;96397;-65
2023/01/24 13:26:33;;;;;;;;;18.00;14.40;;;;;7.83;65.57;100692.41;6226065;27;97129;-65
2023/01/24 13:29:50;;;;;;;;;15.80;13.00;;;;;7.80;65.55;100692.72;6239179;27;96930;-64
2023/01/24 13:32:57;;;;;;;;;15.00;14.00;;;;;7.78;66.07;100685.81;6222355;27;96720;-64
2023/01/24 13:36:06;;;;;;;;;15.40;14.40;;;;;7.73;65.87;100686.31;6241998;28;97564;-64
2023/01/24 13:39:31;;;;;;;;;13.00;11.60;;;;;7.60;65.77;100682.38;6214561;28;96552;-64
2023/01/24 13:42:37;;;;;;;;;13.00;12.00;;;;;7.63;65.62;100699.00;6241932;28;96476;-66
2023/01/24 13:45:52;;;;;;;;;11.00;10.00;;;;;7.60;65.47;100703.84;6246767;27;96233;-65
2023/01/24 13:48:57;;;;;;;;;13.00;12.00;;;;;7.54;65.12;100709.84;6240177;28;97284;-66
2023/01/24 13:52:01;;;;;;;;;13.00;12.20;;;;;7.67;65.33;100713.78;6240600;28;96293;-65
2023/01/24 13:55:12;;;;;;;;;16.40;14.40;;;;;7.66;65.33;100722.03;6241039;28;96232;-64
2023/01/24 13:58:23;;;;;;;;;14.40;12.40;;;;;7.67;64.69;100719.16;6239902;28;96514;-65
2023/01/24 14:01:28;;;;;;;;;13.00;12.00;;;;;7.74;64.82;100725.59;6240636;28;96488;-65
2023/01/24 14:04:41;;;;;;;;;13.00;12.40;;;;;7.72;64.70;100726.75;6240798;28;97148;-65
2023/01/24 14:07:45;;;;;;;;;12.80;11.80;;;;;7.76;64.86;100733.50;6227239;28;96435;-64
2023/01/24 14:10:53;;;;;;;;;14.00;12.40;;;;;7.62;65.02;100731.41;6222935;28;96909;-64
2023/01/24 14:14:00;;;;;;;;;17.60;16.00;;;;;7.49;65.48;100723.75;6221523;28;96257;-67
2023/01/24 14:17:27;;;;;;;;;16.60;13.20;;;;;7.46;65.74;100726.75;6240682;27;96645;-65
2023/01/24 14:20:39;;;;;;;;;14.00;12.40;;;;;7.41;65.78;100721.00;6215521;28;96641;-65
2023/01/24 14:23:45;;;;;;;;;16.00;15.00;;;;;7.46;65.73;100729.44;6243950;27;96341;-64
2023/01/24 14:26:52;;;;;;;;;9.00;8.20;;;;;7.48;65.83;100740.84;6239551;27;96469;-64
2023/01/24 14:30:03;;;;;;;;;9.40;9.40;;;;;7.47;65.54;100741.00;6236812;28;96385;-65
2023/01/24 14:33:33;;;;;;;;;11.00;10.00;;;;;7.28;65.78;100732.13;6239960;28;96237;-63
2023/01/24 14:36:38;;;;;;;;;13.40;13.00;;;;;7.34;65.89;100744.94;6224715;28;97032;-64
2023/01/24 14:39:42;;;;;;;;;13.00;11.60;;;;;7.30;65.67;100748.09;6240184;28;96396;-64
2023/01/24 14:42:45;;;;;;;;;10.00;9.00;;;;;7.31;65.84;100749.78;6221091;28;96251;-64
2023/01/24 14:45:48;;;;;;;;;12.00;12.00;;;;;7.21;66.19;100755.22;6238625;28;96838;-64
2023/01/24 14:48:53;;;;;;;;;12.00;11.00;;;;;7.13;66.70;100757.00;6238122;28;96439;-65
2023/01/24 14:51:57;;;;;;;;;11.40;10.00;;;;;7.13;66.48;100754.31;6237537;28;97839;-65
2023/01/24 14:55:35;;;;;;;;;12.00;10.25;;;;;7.18;66.85;100760.06;6236295;28;96470;-68